sensor_id;sensor_type;location;lat;lon;timestamp;P1;durP1;ratioP1;P2;durP2;ratioP2
6207;SDS011;3137;51.550;7.060;2023-07-13T00:00:08;3.70;;;2.40;;
6207;SDS011;3137;51.550;7.060;2023-07-13T00:02:39;4.97;;;2.43;;
6207;SDS011;3137;51.550;7.060;2023-07-13T00:05:05;4.37;;;2.47;;
6207;SDS011;3137;51.550;7.060;2023-07-13T00:07:32;9.80;;;2.53;;
6207;SDS011;3137;51.550;7.060;2023-07-13T00:09:59;2.90;;;2.70;;
6207;SDS011;3137;51.550;7.060;2023-07-13T00:12:28;3.40;;;3.13;;
6207;SDS011;3137;51.550;7.060;2023-07-13T00:15:00;3.80;;;2.97;;
6207;SDS011;3137;51.550;7.060;2023-07-13T00:17:29;5.30;;;3.43;;
6207;SDS011;3137;51.550;7.060;2023-07-13T00:19:56;6.73;;;3.33;;
6207;SDS011;3137;51.550;7.060;2023-07-13T00:22:23;3.30;;;3.00;;
6207;SDS011;3137;51.550;7.060;2023-07-13T00:24:52;35.20;;;3.17;;
6207;SDS011;3137;51.550;7.060;2023-07-13T00:27:21;3.10;;;2.83;;
6207;SDS011;3137;51.550;7.060;2023-07-13T00:29:48;4.40;;;2.50;;
6207;SDS011;3137;51.550;7.060;2023-07-13T00:32:15;4.73;;;2.83;;
6207;SDS011;3137;51.550;7.060;2023-07-13T00:34:41;2.17;;;2.13;;
6207;SDS011;3137;51.550;7.060;2023-07-13T00:37:08;3.63;;;2.67;;
6207;SDS011;3137;51.550;7.060;2023-07-13T00:39:34;3.07;;;2.90;;
6207;SDS011;3137;51.550;7.060;2023-07-13T00:42:02;2.67;;;2.47;;
6207;SDS011;3137;51.550;7.060;2023-07-13T00:44:29;2.13;;;2.03;;
6207;SDS011;3137;51.550;7.060;2023-07-13T00:46:56;2.57;;;2.53;;
6207;SDS011;3137;51.550;7.060;2023-07-13T00:49:25;6.00;;;3.00;;
6207;SDS011;3137;51.550;7.060;2023-07-13T00:51:57;8.87;;;2.20;;
6207;SDS011;3137;51.550;7.060;2023-07-13T00:54:29;3.73;;;2.60;;
6207;SDS011;3137;51.550;7.060;2023-07-13T00:57:01;4.90;;;2.13;;
6207;SDS011;3137;51.550;7.060;2023-07-13T00:59:30;3.50;;;2.53;;
6207;SDS011;3137;51.550;7.060;2023-07-13T01:01:59;2.40;;;2.20;;
6207;SDS011;3137;51.550;7.060;2023-07-13T01:04:26;2.77;;;2.00;;
6207;SDS011;3137;51.550;7.060;2023-07-13T01:06:54;3.80;;;2.17;;
6207;SDS011;3137;51.550;7.060;2023-07-13T01:09:20;2.40;;;2.27;;
6207;SDS011;3137;51.550;7.060;2023-07-13T01:11:47;9.40;;;3.00;;
6207;SDS011;3137;51.550;7.060;2023-07-13T01:14:14;3.03;;;3.03;;
6207;SDS011;3137;51.550;7.060;2023-07-13T01:16:42;4.27;;;2.03;;
6207;SDS011;3137;51.550;7.060;2023-07-13T01:19:17;3.10;;;1.90;;
6207;SDS011;3137;51.550;7.060;2023-07-13T01:22:03;2.57;;;2.13;;
6207;SDS011;3137;51.550;7.060;2023-07-13T01:24:35;7.47;;;2.47;;
6207;SDS011;3137;51.550;7.060;2023-07-13T01:27:02;5.43;;;2.27;;
6207;SDS011;3137;51.550;7.060;2023-07-13T01:29:30;6.03;;;2.07;;
6207;SDS011;3137;51.550;7.060;2023-07-13T01:31:57;2.30;;;1.90;;
6207;SDS011;3137;51.550;7.060;2023-07-13T01:34:24;5.10;;;1.63;;
6207;SDS011;3137;51.550;7.060;2023-07-13T01:36:51;9.30;;;2.10;;
6207;SDS011;3137;51.550;7.060;2023-07-13T01:39:20;4.57;;;2.20;;
6207;SDS011;3137;51.550;7.060;2023-07-13T01:41:48;2.70;;;2.70;;
6207;SDS011;3137;51.550;7.060;2023-07-13T01:44:17;2.40;;;2.40;;
6207;SDS011;3137;51.550;7.060;2023-07-13T01:46:44;1.73;;;1.73;;
6207;SDS011;3137;51.550;7.060;2023-07-13T01:49:12;4.30;;;2.40;;
6207;SDS011;3137;51.550;7.060;2023-07-13T01:51:38;4.97;;;2.40;;
6207;SDS011;3137;51.550;7.060;2023-07-13T01:54:05;4.63;;;2.30;;
6207;SDS011;3137;51.550;7.060;2023-07-13T01:56:31;2.40;;;2.30;;
6207;SDS011;3137;51.550;7.060;2023-07-13T01:58:57;2.27;;;2.17;;
6207;SDS011;3137;51.550;7.060;2023-07-13T02:01:24;1.70;;;1.70;;
6207;SDS011;3137;51.550;7.060;2023-07-13T02:03:53;1.93;;;1.83;;
6207;SDS011;3137;51.550;7.060;2023-07-13T02:06:19;3.80;;;2.07;;
6207;SDS011;3137;51.550;7.060;2023-07-13T02:08:47;2.93;;;2.20;;
6207;SDS011;3137;51.550;7.060;2023-07-13T02:11:13;2.33;;;2.20;;
6207;SDS011;3137;51.550;7.060;2023-07-13T02:13:40;2.83;;;2.60;;
6207;SDS011;3137;51.550;7.060;2023-07-13T02:16:06;2.30;;;2.23;;
6207;SDS011;3137;51.550;7.060;2023-07-13T02:18:33;7.30;;;2.57;;
6207;SDS011;3137;51.550;7.060;2023-07-13T02:20:59;5.53;;;2.70;;
6207;SDS011;3137;51.550;7.060;2023-07-13T02:23:26;9.93;;;2.03;;
6207;SDS011;3137;51.550;7.060;2023-07-13T02:25:56;2.43;;;2.23;;
6207;SDS011;3137;51.550;7.060;2023-07-13T02:28:23;2.23;;;2.03;;
6207;SDS011;3137;51.550;7.060;2023-07-13T02:30:49;16.83;;;2.30;;
6207;SDS011;3137;51.550;7.060;2023-07-13T02:33:16;1.97;;;1.97;;
6207;SDS011;3137;51.550;7.060;2023-07-13T02:35:43;7.83;;;1.80;;
6207;SDS011;3137;51.550;7.060;2023-07-13T02:38:10;2.37;;;2.27;;
6207;SDS011;3137;51.550;7.060;2023-07-13T02:40:37;8.43;;;2.50;;
6207;SDS011;3137;51.550;7.060;2023-07-13T02:43:04;6.53;;;2.37;;
6207;SDS011;3137;51.550;7.060;2023-07-13T02:45:30;4.30;;;2.23;;
6207;SDS011;3137;51.550;7.060;2023-07-13T02:47:57;23.20;;;2.37;;
6207;SDS011;3137;51.550;7.060;2023-07-13T02:50:23;2.40;;;2.30;;
6207;SDS011;3137;51.550;7.060;2023-07-13T02:52:50;2.27;;;2.17;;
6207;SDS011;3137;51.550;7.060;2023-07-13T02:55:17;1.73;;;1.73;;
6207;SDS011;3137;51.550;7.060;2023-07-13T02:57:43;2.53;;;2.43;;
6207;SDS011;3137;51.550;7.060;2023-07-13T03:00:10;2.80;;;2.70;;
6207;SDS011;3137;51.550;7.060;2023-07-13T03:02:37;4.27;;;2.30;;
6207;SDS011;3137;51.550;7.060;2023-07-13T03:05:04;2.33;;;2.20;;
6207;SDS011;3137;51.550;7.060;2023-07-13T03:07:31;5.00;;;2.00;;
6207;SDS011;3137;51.550;7.060;2023-07-13T03:09:58;5.20;;;2.57;;
6207;SDS011;3137;51.550;7.060;2023-07-13T03:12:34;3.67;;;2.60;;
6207;SDS011;3137;51.550;7.060;2023-07-13T03:15:04;3.00;;;2.60;;
6207;SDS011;3137;51.550;7.060;2023-07-13T03:17:33;3.70;;;2.40;;
6207;SDS011;3137;51.550;7.060;2023-07-13T03:20:00;2.80;;;2.57;;
6207;SDS011;3137;51.550;7.060;2023-07-13T03:22:27;2.53;;;2.33;;
6207;SDS011;3137;51.550;7.060;2023-07-13T03:24:54;2.50;;;2.33;;
6207;SDS011;3137;51.550;7.060;2023-07-13T03:27:21;6.20;;;3.03;;
6207;SDS011;3137;51.550;7.060;2023-07-13T03:29:48;2.60;;;2.40;;
6207;SDS011;3137;51.550;7.060;2023-07-13T03:32:16;10.70;;;2.60;;
6207;SDS011;3137;51.550;7.060;2023-07-13T03:34:43;3.43;;;3.23;;
6207;SDS011;3137;51.550;7.060;2023-07-13T03:37:09;3.57;;;2.33;;
6207;SDS011;3137;51.550;7.060;2023-07-13T03:39:36;2.67;;;2.47;;
6207;SDS011;3137;51.550;7.060;2023-07-13T03:42:03;5.43;;;2.97;;
6207;SDS011;3137;51.550;7.060;2023-07-13T03:44:30;3.00;;;2.80;;
6207;SDS011;3137;51.550;7.060;2023-07-13T03:46:56;2.90;;;2.80;;
6207;SDS011;3137;51.550;7.060;2023-07-13T03:49:23;6.03;;;2.80;;
6207;SDS011;3137;51.550;7.060;2023-07-13T03:51:49;3.83;;;3.00;;
6207;SDS011;3137;51.550;7.060;2023-07-13T03:54:19;2.83;;;2.73;;
6207;SDS011;3137;51.550;7.060;2023-07-13T03:56:46;3.27;;;3.07;;
6207;SDS011;3137;51.550;7.060;2023-07-13T03:59:12;3.13;;;3.03;;
6207;SDS011;3137;51.550;7.060;2023-07-13T04:01:39;2.20;;;2.10;;
6207;SDS011;3137;51.550;7.060;2023-07-13T04:04:05;2.33;;;2.23;;
6207;SDS011;3137;51.550;7.060;2023-07-13T04:06:32;2.10;;;2.00;;
6207;SDS011;3137;51.550;7.060;2023-07-13T04:08:59;3.63;;;2.70;;
6207;SDS011;3137;51.550;7.060;2023-07-13T04:11:28;2.40;;;2.20;;
6207;SDS011;3137;51.550;7.060;2023-07-13T04:13:55;2.13;;;2.03;;
6207;SDS011;3137;51.550;7.060;2023-07-13T04:16:22;5.13;;;2.27;;
6207;SDS011;3137;51.550;7.060;2023-07-13T04:18:49;2.10;;;2.00;;
6207;SDS011;3137;51.550;7.060;2023-07-13T04:21:16;2.30;;;2.30;;
6207;SDS011;3137;51.550;7.060;2023-07-13T04:23:43;3.00;;;2.63;;
6207;SDS011;3137;51.550;7.060;2023-07-13T04:26:09;4.27;;;2.23;;
6207;SDS011;3137;51.550;7.060;2023-07-13T04:28:36;2.63;;;2.30;;
6207;SDS011;3137;51.550;7.060;2023-07-13T04:31:02;4.40;;;2.70;;
6207;SDS011;3137;51.550;7.060;2023-07-13T04:33:29;7.33;;;2.53;;
6207;SDS011;3137;51.550;7.060;2023-07-13T04:35:56;3.27;;;2.67;;
6207;SDS011;3137;51.550;7.060;2023-07-13T04:38:23;2.23;;;2.03;;
6207;SDS011;3137;51.550;7.060;2023-07-13T04:40:56;6.60;;;2.87;;
6207;SDS011;3137;51.550;7.060;2023-07-13T04:43:25;14.27;;;3.50;;
6207;SDS011;3137;51.550;7.060;2023-07-13T04:45:52;10.43;;;2.40;;
6207;SDS011;3137;51.550;7.060;2023-07-13T04:48:19;7.53;;;3.30;;
6207;SDS011;3137;51.550;7.060;2023-07-13T04:50:47;7.00;;;2.33;;
6207;SDS011;3137;51.550;7.060;2023-07-13T04:53:14;4.90;;;3.50;;
6207;SDS011;3137;51.550;7.060;2023-07-13T04:55:40;3.07;;;2.87;;
6207;SDS011;3137;51.550;7.060;2023-07-13T04:58:07;11.33;;;3.67;;
6207;SDS011;3137;51.550;7.060;2023-07-13T05:00:33;5.80;;;2.87;;
6207;SDS011;3137;51.550;7.060;2023-07-13T05:03:00;3.93;;;3.23;;
6207;SDS011;3137;51.550;7.060;2023-07-13T05:05:27;2.67;;;2.63;;
6207;SDS011;3137;51.550;7.060;2023-07-13T05:07:54;13.03;;;3.33;;
6207;SDS011;3137;51.550;7.060;2023-07-13T05:10:20;4.40;;;2.87;;
6207;SDS011;3137;51.550;7.060;2023-07-13T05:12:47;5.53;;;3.03;;
6207;SDS011;3137;51.550;7.060;2023-07-13T05:15:14;5.60;;;2.77;;
6207;SDS011;3137;51.550;7.060;2023-07-13T05:17:41;8.53;;;3.10;;
6207;SDS011;3137;51.550;7.060;2023-07-13T05:20:08;11.43;;;3.23;;
6207;SDS011;3137;51.550;7.060;2023-07-13T05:22:35;4.63;;;2.50;;
6207;SDS011;3137;51.550;7.060;2023-07-13T05:25:05;4.40;;;3.07;;
6207;SDS011;3137;51.550;7.060;2023-07-13T05:27:33;9.43;;;3.07;;
6207;SDS011;3137;51.550;7.060;2023-07-13T05:30:01;13.97;;;3.80;;
6207;SDS011;3137;51.550;7.060;2023-07-13T05:32:29;4.93;;;3.00;;
6207;SDS011;3137;51.550;7.060;2023-07-13T05:34:56;3.63;;;3.40;;
6207;SDS011;3137;51.550;7.060;2023-07-13T05:37:22;3.17;;;2.70;;
6207;SDS011;3137;51.550;7.060;2023-07-13T05:39:49;4.17;;;3.80;;
6207;SDS011;3137;51.550;7.060;2023-07-13T05:42:15;3.83;;;3.13;;
6207;SDS011;3137;51.550;7.060;2023-07-13T05:44:42;4.83;;;3.23;;
6207;SDS011;3137;51.550;7.060;2023-07-13T05:47:08;4.67;;;3.67;;
6207;SDS011;3137;51.550;7.060;2023-07-13T05:49:35;10.83;;;3.93;;
6207;SDS011;3137;51.550;7.060;2023-07-13T05:52:01;17.13;;;3.80;;
6207;SDS011;3137;51.550;7.060;2023-07-13T05:54:28;6.23;;;3.20;;
6207;SDS011;3137;51.550;7.060;2023-07-13T05:56:54;7.57;;;4.10;;
6207;SDS011;3137;51.550;7.060;2023-07-13T05:59:21;9.23;;;3.90;;
6207;SDS011;3137;51.550;7.060;2023-07-13T06:01:47;5.10;;;3.97;;
6207;SDS011;3137;51.550;7.060;2023-07-13T06:04:15;10.13;;;4.07;;
6207;SDS011;3137;51.550;7.060;2023-07-13T06:06:41;4.53;;;3.80;;
6207;SDS011;3137;51.550;7.060;2023-07-13T06:09:07;3.40;;;3.30;;
6207;SDS011;3137;51.550;7.060;2023-07-13T06:11:34;7.93;;;3.53;;
6207;SDS011;3137;51.550;7.060;2023-07-13T06:14:01;6.77;;;3.50;;
6207;SDS011;3137;51.550;7.060;2023-07-13T06:16:28;4.20;;;3.87;;
6207;SDS011;3137;51.550;7.060;2023-07-13T06:18:54;15.70;;;4.80;;
6207;SDS011;3137;51.550;7.060;2023-07-13T06:21:21;3.13;;;2.93;;
6207;SDS011;3137;51.550;7.060;2023-07-13T06:23:50;11.87;;;4.93;;
6207;SDS011;3137;51.550;7.060;2023-07-13T06:26:17;8.83;;;4.60;;
6207;SDS011;3137;51.550;7.060;2023-07-13T06:28:45;8.23;;;4.20;;
6207;SDS011;3137;51.550;7.060;2023-07-13T06:31:12;6.80;;;4.67;;
6207;SDS011;3137;51.550;7.060;2023-07-13T06:33:40;16.47;;;4.50;;
6207;SDS011;3137;51.550;7.060;2023-07-13T06:36:07;11.07;;;4.00;;
6207;SDS011;3137;51.550;7.060;2023-07-13T06:38:35;11.30;;;4.97;;
6207;SDS011;3137;51.550;7.060;2023-07-13T06:41:02;5.20;;;4.80;;
6207;SDS011;3137;51.550;7.060;2023-07-13T06:43:30;4.73;;;4.23;;
6207;SDS011;3137;51.550;7.060;2023-07-13T06:45:58;10.57;;;4.73;;
6207;SDS011;3137;51.550;7.060;2023-07-13T06:48:25;15.37;;;5.30;;
6207;SDS011;3137;51.550;7.060;2023-07-13T06:50:51;9.00;;;4.57;;
6207;SDS011;3137;51.550;7.060;2023-07-13T06:53:19;11.23;;;4.83;;
6207;SDS011;3137;51.550;7.060;2023-07-13T06:55:46;5.30;;;4.80;;
6207;SDS011;3137;51.550;7.060;2023-07-13T06:58:15;9.20;;;5.23;;
6207;SDS011;3137;51.550;7.060;2023-07-13T07:00:43;8.33;;;4.83;;
6207;SDS011;3137;51.550;7.060;2023-07-13T07:03:10;8.40;;;4.67;;
6207;SDS011;3137;51.550;7.060;2023-07-13T07:05:36;8.10;;;5.57;;
6207;SDS011;3137;51.550;7.060;2023-07-13T07:08:03;11.47;;;4.83;;
6207;SDS011;3137;51.550;7.060;2023-07-13T07:10:30;12.30;;;4.73;;
6207;SDS011;3137;51.550;7.060;2023-07-13T07:12:57;7.00;;;5.00;;
6207;SDS011;3137;51.550;7.060;2023-07-13T07:15:24;7.43;;;5.10;;
6207;SDS011;3137;51.550;7.060;2023-07-13T07:17:52;7.87;;;4.53;;
6207;SDS011;3137;51.550;7.060;2023-07-13T07:20:18;9.80;;;4.97;;
6207;SDS011;3137;51.550;7.060;2023-07-13T07:22:46;11.83;;;4.80;;
6207;SDS011;3137;51.550;7.060;2023-07-13T07:25:13;8.57;;;4.33;;
6207;SDS011;3137;51.550;7.060;2023-07-13T07:27:40;5.57;;;5.07;;
6207;SDS011;3137;51.550;7.060;2023-07-13T07:30:10;5.97;;;5.33;;
6207;SDS011;3137;51.550;7.060;2023-07-13T07:32:40;8.30;;;6.43;;
6207;SDS011;3137;51.550;7.060;2023-07-13T07:35:23;9.17;;;5.63;;
6207;SDS011;3137;51.550;7.060;2023-07-13T07:37:49;15.93;;;6.00;;
6207;SDS011;3137;51.550;7.060;2023-07-13T07:40:17;5.57;;;5.00;;
6207;SDS011;3137;51.550;7.060;2023-07-13T07:42:47;9.70;;;5.70;;
6207;SDS011;3137;51.550;7.060;2023-07-13T07:45:14;6.50;;;5.00;;
6207;SDS011;3137;51.550;7.060;2023-07-13T07:47:41;11.50;;;6.40;;
6207;SDS011;3137;51.550;7.060;2023-07-13T07:50:08;7.80;;;6.30;;
6207;SDS011;3137;51.550;7.060;2023-07-13T07:52:35;9.40;;;5.90;;
6207;SDS011;3137;51.550;7.060;2023-07-13T07:55:01;6.43;;;5.67;;
6207;SDS011;3137;51.550;7.060;2023-07-13T07:57:31;6.57;;;6.23;;
6207;SDS011;3137;51.550;7.060;2023-07-13T08:00:17;11.50;;;6.17;;
6207;SDS011;3137;51.550;7.060;2023-07-13T08:02:47;6.43;;;4.83;;
6207;SDS011;3137;51.550;7.060;2023-07-13T08:05:17;12.83;;;5.63;;
6207;SDS011;3137;51.550;7.060;2023-07-13T08:07:47;6.10;;;5.20;;
6207;SDS011;3137;51.550;7.060;2023-07-13T08:10:13;9.17;;;4.90;;
6207;SDS011;3137;51.550;7.060;2023-07-13T08:12:40;23.57;;;5.70;;
6207;SDS011;3137;51.550;7.060;2023-07-13T08:15:16;5.73;;;5.03;;
6207;SDS011;3137;51.550;7.060;2023-07-13T08:17:43;7.47;;;4.80;;
6207;SDS011;3137;51.550;7.060;2023-07-13T08:20:11;5.87;;;5.03;;
6207;SDS011;3137;51.550;7.060;2023-07-13T08:22:37;5.70;;;5.13;;
6207;SDS011;3137;51.550;7.060;2023-07-13T08:25:04;7.63;;;5.83;;
6207;SDS011;3137;51.550;7.060;2023-07-13T08:27:30;6.43;;;6.00;;
6207;SDS011;3137;51.550;7.060;2023-07-13T08:29:57;7.97;;;6.80;;
6207;SDS011;3137;51.550;7.060;2023-07-13T08:32:24;10.43;;;9.83;;
6207;SDS011;3137;51.550;7.060;2023-07-13T08:34:51;12.87;;;8.03;;
6207;SDS011;3137;51.550;7.060;2023-07-13T08:37:17;9.23;;;8.00;;
6207;SDS011;3137;51.550;7.060;2023-07-13T08:39:44;11.33;;;9.53;;
6207;SDS011;3137;51.550;7.060;2023-07-13T08:42:13;8.23;;;7.83;;
6207;SDS011;3137;51.550;7.060;2023-07-13T08:47:52;15.50;;;8.90;;
6207;SDS011;3137;51.550;7.060;2023-07-13T08:50:23;9.90;;;9.17;;
6207;SDS011;3137;51.550;7.060;2023-07-13T08:52:53;17.13;;;8.90;;
6207;SDS011;3137;51.550;7.060;2023-07-13T08:55:33;13.83;;;8.70;;
6207;SDS011;3137;51.550;7.060;2023-07-13T09:04:19;9.73;;;8.60;;
6207;SDS011;3137;51.550;7.060;2023-07-13T09:06:59;7.43;;;6.93;;
6207;SDS011;3137;51.550;7.060;2023-07-13T09:14:59;8.57;;;7.67;;
6207;SDS011;3137;51.550;7.060;2023-07-13T09:17:35;11.73;;;6.53;;
6207;SDS011;3137;51.550;7.060;2023-07-13T09:20:29;15.10;;;7.67;;
6207;SDS011;3137;51.550;7.060;2023-07-13T09:22:59;9.30;;;8.80;;
6207;SDS011;3137;51.550;7.060;2023-07-13T09:25:32;14.97;;;9.13;;
6207;SDS011;3137;51.550;7.060;2023-07-13T09:28:02;12.23;;;8.87;;
6207;SDS011;3137;51.550;7.060;2023-07-13T09:33:30;9.90;;;7.73;;
6207;SDS011;3137;51.550;7.060;2023-07-13T09:35:57;7.60;;;6.30;;
6207;SDS011;3137;51.550;7.060;2023-07-13T09:38:25;6.13;;;5.67;;
6207;SDS011;3137;51.550;7.060;2023-07-13T09:46:57;6.10;;;5.37;;
6207;SDS011;3137;51.550;7.060;2023-07-13T09:49:27;7.57;;;4.80;;
6207;SDS011;3137;51.550;7.060;2023-07-13T09:52:00;8.67;;;5.10;;
6207;SDS011;3137;51.550;7.060;2023-07-13T09:54:29;4.80;;;4.60;;
6207;SDS011;3137;51.550;7.060;2023-07-13T09:56:59;6.90;;;3.80;;
6207;SDS011;3137;51.550;7.060;2023-07-13T09:59:37;7.23;;;3.93;;
6207;SDS011;3137;51.550;7.060;2023-07-13T10:04:57;3.83;;;3.70;;
6207;SDS011;3137;51.550;7.060;2023-07-13T10:07:30;4.73;;;3.70;;
6207;SDS011;3137;51.550;7.060;2023-07-13T10:09:59;4.13;;;3.77;;
6207;SDS011;3137;51.550;7.060;2023-07-13T10:12:28;4.03;;;3.83;;
6207;SDS011;3137;51.550;7.060;2023-07-13T10:14:58;4.57;;;4.07;;
6207;SDS011;3137;51.550;7.060;2023-07-13T10:17:47;4.87;;;3.60;;
6207;SDS011;3137;51.550;7.060;2023-07-13T10:20:16;4.67;;;4.27;;
6207;SDS011;3137;51.550;7.060;2023-07-13T10:25:31;6.73;;;4.10;;
6207;SDS011;3137;51.550;7.060;2023-07-13T10:30:54;5.63;;;4.90;;
6207;SDS011;3137;51.550;7.060;2023-07-13T10:33:24;8.43;;;5.53;;
6207;SDS011;3137;51.550;7.060;2023-07-13T10:35:51;11.47;;;4.83;;
6207;SDS011;3137;51.550;7.060;2023-07-13T10:38:28;6.93;;;3.80;;
6207;SDS011;3137;51.550;7.060;2023-07-13T10:43:33;9.27;;;4.20;;
6207;SDS011;3137;51.550;7.060;2023-07-13T10:46:08;5.43;;;3.80;;
6207;SDS011;3137;51.550;7.060;2023-07-13T10:48:39;3.90;;;3.57;;
6207;SDS011;3137;51.550;7.060;2023-07-13T10:51:08;4.07;;;3.77;;
6207;SDS011;3137;51.550;7.060;2023-07-13T10:53:37;6.70;;;3.67;;
6207;SDS011;3137;51.550;7.060;2023-07-13T10:56:14;4.63;;;3.53;;
6207;SDS011;3137;51.550;7.060;2023-07-13T10:58:48;6.23;;;3.93;;
6207;SDS011;3137;51.550;7.060;2023-07-13T11:01:38;3.80;;;3.60;;
6207;SDS011;3137;51.550;7.060;2023-07-13T11:04:26;9.07;;;3.67;;
6207;SDS011;3137;51.550;7.060;2023-07-13T11:06:59;5.23;;;3.77;;
6207;SDS011;3137;51.550;7.060;2023-07-13T11:09:38;3.93;;;3.47;;
6207;SDS011;3137;51.550;7.060;2023-07-13T11:12:08;3.07;;;2.87;;
6207;SDS011;3137;51.550;7.060;2023-07-13T11:15:00;10.47;;;3.10;;
6207;SDS011;3137;51.550;7.060;2023-07-13T11:20:09;3.47;;;3.17;;
6207;SDS011;3137;51.550;7.060;2023-07-13T11:25:42;3.13;;;2.90;;
6207;SDS011;3137;51.550;7.060;2023-07-13T11:30:43;3.17;;;2.87;;
6207;SDS011;3137;51.550;7.060;2023-07-13T11:39:38;3.20;;;2.90;;
6207;SDS011;3137;51.550;7.060;2023-07-13T11:41:55;2.93;;;2.80;;
6207;SDS011;3137;51.550;7.060;2023-07-13T11:44:24;9.40;;;2.93;;
6207;SDS011;3137;51.550;7.060;2023-07-13T11:46:53;4.77;;;3.10;;
6207;SDS011;3137;51.550;7.060;2023-07-13T11:49:22;3.77;;;3.00;;
6207;SDS011;3137;51.550;7.060;2023-07-13T11:51:51;2.73;;;2.60;;
6207;SDS011;3137;51.550;7.060;2023-07-13T11:54:27;5.33;;;2.87;;
6207;SDS011;3137;51.550;7.060;2023-07-13T11:56:56;2.23;;;2.13;;
6207;SDS011;3137;51.550;7.060;2023-07-13T11:59:29;2.90;;;2.17;;
6207;SDS011;3137;51.550;7.060;2023-07-13T12:01:56;3.33;;;2.60;;
6207;SDS011;3137;51.550;7.060;2023-07-13T12:04:25;6.13;;;3.00;;
6207;SDS011;3137;51.550;7.060;2023-07-13T12:06:56;3.20;;;2.30;;
6207;SDS011;3137;51.550;7.060;2023-07-13T12:09:35;1.90;;;1.90;;
6207;SDS011;3137;51.550;7.060;2023-07-13T12:12:02;1.80;;;1.70;;
6207;SDS011;3137;51.550;7.060;2023-07-13T12:14:29;4.00;;;2.53;;
6207;SDS011;3137;51.550;7.060;2023-07-13T12:17:00;2.60;;;2.40;;
6207;SDS011;3137;51.550;7.060;2023-07-13T12:19:27;2.47;;;2.33;;
6207;SDS011;3137;51.550;7.060;2023-07-13T12:21:58;2.47;;;2.40;;
6207;SDS011;3137;51.550;7.060;2023-07-13T12:24:25;2.30;;;2.27;;
6207;SDS011;3137;51.550;7.060;2023-07-13T12:26:54;9.53;;;2.40;;
6207;SDS011;3137;51.550;7.060;2023-07-13T12:29:26;3.23;;;2.77;;
6207;SDS011;3137;51.550;7.060;2023-07-13T12:31:53;2.20;;;2.07;;
6207;SDS011;3137;51.550;7.060;2023-07-13T12:34:21;2.73;;;2.53;;
6207;SDS011;3137;51.550;7.060;2023-07-13T12:36:58;2.40;;;2.30;;
6207;SDS011;3137;51.550;7.060;2023-07-13T12:39:34;11.70;;;2.13;;
6207;SDS011;3137;51.550;7.060;2023-07-13T12:42:16;2.43;;;2.20;;
6207;SDS011;3137;51.550;7.060;2023-07-13T12:44:47;5.10;;;2.50;;
6207;SDS011;3137;51.550;7.060;2023-07-13T12:47:14;2.20;;;2.10;;
6207;SDS011;3137;51.550;7.060;2023-07-13T12:49:43;2.00;;;1.90;;
6207;SDS011;3137;51.550;7.060;2023-07-13T12:52:20;3.07;;;2.00;;
6207;SDS011;3137;51.550;7.060;2023-07-13T12:54:58;7.77;;;2.50;;
6207;SDS011;3137;51.550;7.060;2023-07-13T12:57:32;2.10;;;2.10;;
6207;SDS011;3137;51.550;7.060;2023-07-13T13:00:09;6.13;;;2.57;;
6207;SDS011;3137;51.550;7.060;2023-07-13T13:02:49;2.37;;;2.27;;
6207;SDS011;3137;51.550;7.060;2023-07-13T13:05:17;3.20;;;2.07;;
6207;SDS011;3137;51.550;7.060;2023-07-13T13:07:44;2.20;;;2.20;;
6207;SDS011;3137;51.550;7.060;2023-07-13T13:10:13;3.20;;;2.53;;
6207;SDS011;3137;51.550;7.060;2023-07-13T13:12:40;9.77;;;3.17;;
6207;SDS011;3137;51.550;7.060;2023-07-13T13:15:10;3.07;;;2.90;;
6207;SDS011;3137;51.550;7.060;2023-07-13T13:17:38;3.97;;;3.83;;
6207;SDS011;3137;51.550;7.060;2023-07-13T13:20:13;3.60;;;3.30;;
6207;SDS011;3137;51.550;7.060;2023-07-13T13:22:42;3.10;;;3.00;;
6207;SDS011;3137;51.550;7.060;2023-07-13T13:25:12;3.47;;;3.40;;
6207;SDS011;3137;51.550;7.060;2023-07-13T13:27:40;4.30;;;3.90;;
6207;SDS011;3137;51.550;7.060;2023-07-13T13:30:17;9.20;;;3.47;;
6207;SDS011;3137;51.550;7.060;2023-07-13T13:32:44;3.83;;;3.50;;
6207;SDS011;3137;51.550;7.060;2023-07-13T13:35:14;6.83;;;4.10;;
6207;SDS011;3137;51.550;7.060;2023-07-13T13:37:41;4.20;;;3.90;;
6207;SDS011;3137;51.550;7.060;2023-07-13T13:40:15;5.40;;;4.37;;
6207;SDS011;3137;51.550;7.060;2023-07-13T13:42:44;4.10;;;3.80;;
6207;SDS011;3137;51.550;7.060;2023-07-13T13:45:10;5.37;;;4.13;;
6207;SDS011;3137;51.550;7.060;2023-07-13T13:47:43;3.93;;;3.53;;
6207;SDS011;3137;51.550;7.060;2023-07-13T13:50:15;5.73;;;3.87;;
6207;SDS011;3137;51.550;7.060;2023-07-13T13:52:47;4.63;;;4.20;;
6207;SDS011;3137;51.550;7.060;2023-07-13T13:55:15;3.60;;;3.53;;
6207;SDS011;3137;51.550;7.060;2023-07-13T13:57:43;4.23;;;3.97;;
6207;SDS011;3137;51.550;7.060;2023-07-13T14:00:11;4.27;;;4.10;;
6207;SDS011;3137;51.550;7.060;2023-07-13T14:02:42;4.43;;;3.73;;
6207;SDS011;3137;51.550;7.060;2023-07-13T14:05:22;4.20;;;3.90;;
6207;SDS011;3137;51.550;7.060;2023-07-13T14:07:50;4.90;;;4.37;;
6207;SDS011;3137;51.550;7.060;2023-07-13T14:10:17;4.67;;;4.47;;
6207;SDS011;3137;51.550;7.060;2023-07-13T14:12:45;4.30;;;4.20;;
6207;SDS011;3137;51.550;7.060;2023-07-13T14:15:21;4.43;;;4.13;;
6207;SDS011;3137;51.550;7.060;2023-07-13T14:17:54;4.57;;;4.03;;
6207;SDS011;3137;51.550;7.060;2023-07-13T14:20:22;4.30;;;4.10;;
6207;SDS011;3137;51.550;7.060;2023-07-13T14:22:51;4.23;;;4.13;;
6207;SDS011;3137;51.550;7.060;2023-07-13T14:25:19;3.87;;;3.77;;
6207;SDS011;3137;51.550;7.060;2023-07-13T14:27:48;3.93;;;3.73;;
6207;SDS011;3137;51.550;7.060;2023-07-13T14:30:19;5.60;;;4.93;;
6207;SDS011;3137;51.550;7.060;2023-07-13T14:32:48;4.17;;;4.07;;
6207;SDS011;3137;51.550;7.060;2023-07-13T14:35:16;6.33;;;5.13;;
6207;SDS011;3137;51.550;7.060;2023-07-13T14:37:45;4.60;;;4.50;;
6207;SDS011;3137;51.550;7.060;2023-07-13T14:40:13;4.50;;;4.30;;
6207;SDS011;3137;51.550;7.060;2023-07-13T14:42:42;4.37;;;4.27;;
6207;SDS011;3137;51.550;7.060;2023-07-13T14:45:12;9.30;;;4.87;;
6207;SDS011;3137;51.550;7.060;2023-07-13T14:47:42;6.03;;;5.03;;
6207;SDS011;3137;51.550;7.060;2023-07-13T14:50:20;4.77;;;4.57;;
6207;SDS011;3137;51.550;7.060;2023-07-13T14:52:50;5.10;;;4.90;;
6207;SDS011;3137;51.550;7.060;2023-07-13T14:55:17;6.50;;;4.30;;
6207;SDS011;3137;51.550;7.060;2023-07-13T14:57:45;5.47;;;5.00;;
6207;SDS011;3137;51.550;7.060;2023-07-13T15:00:16;4.53;;;4.33;;
6207;SDS011;3137;51.550;7.060;2023-07-13T15:02:44;4.50;;;4.07;;
6207;SDS011;3137;51.550;7.060;2023-07-13T15:05:16;4.07;;;3.80;;
6207;SDS011;3137;51.550;7.060;2023-07-13T15:07:45;4.40;;;4.20;;
6207;SDS011;3137;51.550;7.060;2023-07-13T15:10:15;4.93;;;4.47;;
6207;SDS011;3137;51.550;7.060;2023-07-13T15:12:44;4.50;;;4.40;;
6207;SDS011;3137;51.550;7.060;2023-07-13T15:15:11;9.83;;;4.57;;
6207;SDS011;3137;51.550;7.060;2023-07-13T15:17:38;3.90;;;3.90;;
6207;SDS011;3137;51.550;7.060;2023-07-13T15:20:21;3.00;;;3.00;;
6207;SDS011;3137;51.550;7.060;2023-07-13T15:22:59;6.83;;;3.20;;
6207;SDS011;3137;51.550;7.060;2023-07-13T15:25:27;4.20;;;4.00;;
6207;SDS011;3137;51.550;7.060;2023-07-13T15:27:56;4.40;;;3.87;;
6207;SDS011;3137;51.550;7.060;2023-07-13T15:33:16;3.93;;;3.53;;
6207;SDS011;3137;51.550;7.060;2023-07-13T15:35:48;5.80;;;3.67;;
6207;SDS011;3137;51.550;7.060;2023-07-13T15:38:18;4.03;;;3.67;;
6207;SDS011;3137;51.550;7.060;2023-07-13T15:40:49;4.03;;;4.03;;
6207;SDS011;3137;51.550;7.060;2023-07-13T15:43:17;4.70;;;4.50;;
6207;SDS011;3137;51.550;7.060;2023-07-13T15:45:45;7.10;;;4.70;;
6207;SDS011;3137;51.550;7.060;2023-07-13T15:48:23;7.30;;;5.03;;
6207;SDS011;3137;51.550;7.060;2023-07-13T15:50:53;6.30;;;5.27;;
6207;SDS011;3137;51.550;7.060;2023-07-13T15:53:24;4.83;;;4.50;;
6207;SDS011;3137;51.550;7.060;2023-07-13T15:55:54;4.47;;;4.03;;
6207;SDS011;3137;51.550;7.060;2023-07-13T15:58:21;4.23;;;3.93;;
6207;SDS011;3137;51.550;7.060;2023-07-13T16:00:48;3.90;;;3.70;;
6207;SDS011;3137;51.550;7.060;2023-07-13T16:03:18;11.83;;;4.10;;
6207;SDS011;3137;51.550;7.060;2023-07-13T16:05:46;4.40;;;4.20;;
6207;SDS011;3137;51.550;7.060;2023-07-13T16:08:22;9.23;;;3.80;;
6207;SDS011;3137;51.550;7.060;2023-07-13T16:10:54;5.37;;;5.17;;
6207;SDS011;3137;51.550;7.060;2023-07-13T16:13:22;8.90;;;5.60;;
6207;SDS011;3137;51.550;7.060;2023-07-13T16:15:51;11.53;;;6.63;;
6207;SDS011;3137;51.550;7.060;2023-07-13T16:18:18;6.50;;;6.20;;